Clarksville, Illinois
Current Conditions -  °F | °C
As of 10:15 AM on Thursday 29 Jan 2015 (Local Time) from KPRG Reporting Station
Haze Haze  
Wind Chill: 24°   Ceiling: 800
Heat Index: 35°   Visibility: 1.5mi
Dew Point: 34°   Wind: 18mph
Humidity: 95%   Direction: 290°WNW
Pressure: 29.95"   Gusts: 30mph
Location:  39.4361°N, 87.7043°W
Report Text: KPRG 291615Z AUTO 29016G26KT 1 1/2SM BR BKN008 OVC013 02/01 A2995 RMK AO2 T00170010
Loading
Personal Weather Stations






























Interactive Weather Map New forecast layout! Learn more

10-Day Weather Forecast

Advertisements
Track Severe Weather on mobile